Airfield :
LOGIN :

Register | Disclaimer

   EN    FR    IT 

 










Legend :    VFR   Marginal VFR   IFR   Intensive IFR   Very Intensive IFR
Visi :
Ceiling :
>= 8 km
>= 3000ft
5 to 8 km
1000 to 3000 ft
1500m to 5 km
500 to 1000 ft
800 to 1500m
200 to 500 ft
< 800m
< 200 ft
Symbols :   Thunderstorms  Fog  Heavy snow  Heavy precipitations  Wind > 20 kt
SIGMETs :     Misc.  Thunderstorms  Icing  Turbulence  Mountain Waves  Volcanic Ashes







- Airport Elevation : 453 ft
- IATA code : SBK
- Download approach charts


LFRT - St Brieuc Armor

CURRENT METAR :
  • 252100Z AUTO 00000KT 6000 BKN005 BKN090 15/15 Q1022

EXPIRED METARs :
  • 252030Z AUTO 07002KT CAVOK 15/15 Q1021
  • 252000Z AUTO VRB02KT CAVOK 16/15 Q1021
  • 251930Z AUTO 36003KT 330V030 CAVOK 16/15 Q1021

Expired Forecast.
No reported NOTAMs for that airfield.
1 SIGMET reported for the Brest FIR (LFRR) :
 
Embedded thunderstorms and hail
LFRR SIGMET 2 VALID 252200/260200 LFPW
LFRR BREST FIR/UIR EMBD TSGR OBS AT 2155Z WI N4400 W00415 - N4415 W00515 - N4615 W00300 - N4515 W00300 - N4400 W00415 TOP FL360 MOV NNE 25KT INTSF=



MET'MAP, your aeronautical weather chart ! - Copyright ORBIFLY December 2007 - Disclaimer

ORBIFLY MET'MAP TEAM :

Programming & Development : Alexandra Zaïnal
Concept & Development : Baudouin d'Aumeries
Co-Development & Prog : Marc-Olivier Méhu
Technical & hardware support : Manuel Goepfert

Contact : metmap@orbifly.com




SOURCES & CREDITS :

   NOAA